Time;durP1;ratioP1;P1;durP2;ratioP2;P2;SDS_P1;SDS_P2;PMS_P1;PMS_P2;Temp;Humidity;BMP_temperature;BMP_pressure;BME280_temperature;BME280_humidity;BME280_pressure;Samples;Min_cycle;Max_cycle;Signal;HPM_P1;HPM_P2
2022/04/12 00:00:54;;;;;;;0.03;0.03;;;;;;;11.51;65.72;99726.31;7359235;19;20007;-63
2022/04/12 00:03:20;;;;;;;0.00;0.00;;;;;;;11.55;66.31;99735.69;7343154;19;20027;-64
2022/04/12 00:05:45;;;;;;;0.03;0.03;;;;;;;11.54;66.32;99742.69;7348727;19;20488;-64
2022/04/12 00:08:10;;;;;;;0.00;0.00;;;;;;;11.53;66.01;99746.22;7351330;19;20044;-64
2022/04/12 00:10:36;;;;;;;0.00;0.00;;;;;;;11.51;66.06;99753.28;7359632;19;20096;-64
2022/04/12 00:13:03;;;;;;;0.00;0.00;;;;;;;11.49;66.42;99749.88;7350425;19;20770;-63
2022/04/12 00:15:28;;;;;;;0.00;0.00;;;;;;;11.48;66.01;99748.19;7354228;19;20111;-63
2022/04/12 00:20:38;;;;;;;0.00;0.00;;;;;;;11.44;66.52;99746.59;7361300;19;20021;-64
2022/04/12 00:23:07;;;;;;;0.00;0.00;;;;;;;11.43;66.02;99739.69;7358942;19;20014;-64
2022/04/12 00:25:33;;;;;;;0.00;0.00;;;;;;;11.42;66.72;99732.75;7357985;19;20040;-64
2022/04/12 00:27:59;;;;;;;0.00;0.00;;;;;;;11.39;66.44;99728.50;7351359;19;20011;-64
2022/04/12 00:30:26;;;;;;;0.00;0.00;;;;;;;11.38;66.37;99725.94;7358863;19;20010;-65
2022/04/12 00:32:52;;;;;;;0.10;0.10;;;;;;;11.37;66.29;99719.03;7348202;19;20374;-64
2022/04/12 00:35:20;;;;;;;0.10;0.10;;;;;;;11.35;66.60;99724.31;7358710;19;20011;-64
2022/04/12 00:37:47;;;;;;;0.00;0.00;;;;;;;11.34;66.50;99721.75;7357346;19;20013;-63
2022/04/12 00:40:15;;;;;;;0.00;0.00;;;;;;;11.34;66.69;99724.38;7353544;19;20003;-65
2022/04/12 00:42:40;;;;;;;0.00;0.00;;;;;;;11.31;66.63;99720.13;7348860;19;20691;-65
2022/04/12 00:45:06;;;;;;;0.00;0.00;;;;;;;11.30;66.61;99722.78;7356719;19;20014;-64
2022/04/12 00:47:32;;;;;;;0.10;0.10;;;;;;;11.28;66.98;99727.25;7350535;19;20018;-62
2022/04/12 00:49:57;;;;;;;0.05;0.05;;;;;;;11.20;66.83;99727.53;7358828;19;20019;-63
2022/04/12 00:52:25;;;;;;;0.00;0.00;;;;;;;11.26;66.46;99736.91;7334402;19;20014;-64
2022/04/12 00:54:52;;;;;;;0.00;0.00;;;;;;;11.23;67.00;99737.03;7357661;19;20485;-64
2022/04/12 00:57:18;;;;;;;0.00;0.00;;;;;;;11.21;67.07;99746.72;7354266;19;20035;-65
2022/04/12 00:59:45;;;;;;;0.00;0.00;;;;;;;11.18;66.59;99750.28;7356345;19;20011;-64
2022/04/12 01:02:10;;;;;;;0.00;0.00;;;;;;;11.15;67.31;99756.50;7353592;19;20003;-64
2022/04/12 01:04:35;;;;;;;0.10;0.10;;;;;;;11.15;67.37;99753.88;7347040;19;20488;-63
2022/04/12 01:07:02;;;;;;;0.00;0.00;;;;;;;11.12;67.22;99746.16;7357155;19;20036;-64
2022/04/12 01:09:27;;;;;;;0.00;0.00;;;;;;;11.09;67.17;99748.88;7359647;19;20474;-63
2022/04/12 01:11:54;;;;;;;0.10;0.10;;;;;;;11.09;67.13;99755.88;7347230;19;20022;-64
2022/04/12 01:14:21;;;;;;;0.03;0.03;;;;;;;11.06;67.57;99754.25;7357229;19;20125;-64
2022/04/12 01:16:47;;;;;;;0.00;0.00;;;;;;;11.03;67.60;99738.69;7359732;19;20010;-64
2022/04/12 01:19:12;;;;;;;0.00;0.00;;;;;;;11.02;66.97;99733.53;7353418;19;20707;-64
2022/04/12 01:22:10;;;;;;;0.00;0.00;;;;;;;11.02;65.89;99731.75;7353334;19;20014;-63
2022/04/12 01:24:35;;;;;;;0.00;0.00;;;;;;;10.98;67.31;99738.00;7254893;19;2004038;-64
2022/04/12 01:27:01;;;;;;;0.00;0.00;;;;;;;10.92;67.53;99725.19;7347165;19;20770;-64
2022/04/12 01:29:33;;;;;;;0.00;0.00;;;;;;;10.96;67.05;99733.78;7357974;19;20017;-64
2022/04/12 01:32:00;;;;;;;0.00;0.00;;;;;;;10.92;67.74;99743.50;7349701;19;20024;-64
2022/04/12 01:34:26;;;;;;;0.00;0.00;;;;;;;10.91;67.39;99737.41;7351487;19;20117;-63
2022/04/12 01:36:52;;;;;;;0.08;0.08;;;;;;;10.88;67.40;99732.31;7357673;19;21270;-64
2022/04/12 01:39:17;;;;;;;0.08;0.08;;;;;;;10.79;67.38;99711.75;7357141;19;20031;-64
2022/04/12 01:41:42;;;;;;;0.00;0.00;;;;;;;10.87;66.98;99729.75;7344767;19;20024;-63
2022/04/12 01:44:08;;;;;;;0.00;0.00;;;;;;;10.85;67.83;99718.53;7357868;19;20014;-64
2022/04/12 01:46:33;;;;;;;0.03;0.03;;;;;;;10.85;67.93;99715.94;7347103;19;20041;-64
2022/04/12 01:48:58;;;;;;;0.00;0.00;;;;;;;10.84;68.19;99715.03;7354550;19;20820;-64
2022/04/12 01:51:24;;;;;;;0.10;0.10;;;;;;;10.88;67.82;99727.06;7357747;19;20014;-65
2022/04/12 01:53:49;;;;;;;0.00;0.00;;;;;;;10.88;68.21;99719.25;7351746;19;20597;-64
2022/04/12 01:56:15;;;;;;;0.00;0.00;;;;;;;10.85;68.02;99711.56;7354176;19;20544;-63
2022/04/12 01:58:42;;;;;;;0.10;0.10;;;;;;;10.90;68.16;99711.38;7346067;19;20018;-64
2022/04/12 02:01:07;;;;;;;0.03;0.03;;;;;;;10.91;67.87;99710.44;7340439;19;20010;-62
2022/04/12 02:03:33;;;;;;;0.00;0.00;;;;;;;10.90;67.79;99704.38;7343585;19;20790;-63
2022/04/12 02:05:58;;;;;;;0.08;0.08;;;;;;;10.91;67.46;99716.53;7354531;19;20543;-63
2022/04/12 02:08:23;;;;;;;0.05;0.05;;;;;;;10.93;67.52;99719.06;7351571;19;20010;-64
2022/04/12 02:10:49;;;;;;;0.00;0.00;;;;;;;10.88;68.17;99705.34;7351130;19;20018;-64
2022/04/12 02:13:16;;;;;;;0.00;0.00;;;;;;;10.89;67.77;99707.88;7331456;19;20034;-64
2022/04/12 02:15:42;;;;;;;0.00;0.00;;;;;;;10.96;67.64;99712.88;7352583;19;20047;-64
2022/04/12 02:18:07;;;;;;;0.00;0.00;;;;;;;10.85;67.12;99695.88;7345416;19;20417;-63
2022/04/12 02:20:33;;;;;;;0.00;0.00;;;;;;;10.99;67.18;99712.75;7346559;19;20022;-64
2022/04/12 02:22:58;;;;;;;0.10;0.10;;;;;;;10.98;67.80;99727.56;7343520;19;20050;-63
2022/04/12 02:25:24;;;;;;;0.00;0.00;;;;;;;10.99;68.25;99723.19;7353222;19;20078;-64
2022/04/12 02:27:49;;;;;;;0.05;0.05;;;;;;;10.97;68.63;99736.31;7342503;19;23725;-64
2022/04/12 02:30:15;;;;;;;0.00;0.00;;;;;;;10.99;68.54;99744.09;7340376;19;20652;-65
2022/04/12 02:32:41;;;;;;;0.00;0.00;;;;;;;10.99;68.36;99744.94;7339889;19;20019;-63
2022/04/12 02:35:07;;;;;;;0.00;0.00;;;;;;;10.94;68.14;99736.44;7349634;19;20014;-64
2022/04/12 02:37:33;;;;;;;0.00;0.00;;;;;;;10.81;68.21;99724.78;7347785;19;20024;-64
2022/04/12 02:39:58;;;;;;;0.00;0.00;;;;;;;10.96;67.86;99754.69;7352047;19;20014;-62
2022/04/12 02:42:23;;;;;;;0.00;0.00;;;;;;;10.96;68.11;99770.34;7349665;19;20006;-64
2022/04/12 02:44:49;;;;;;;0.00;0.00;;;;;;;10.96;67.63;99760.75;7349530;19;20089;-63
2022/04/12 02:47:14;;;;;;;0.00;0.00;;;;;;;11.00;67.42;99757.09;7343059;19;20150;-64
2022/04/12 02:49:40;;;;;;;0.00;0.00;;;;;;;10.89;67.94;99728.78;7353905;19;20027;-64
2022/04/12 02:52:06;;;;;;;0.10;0.10;;;;;;;10.89;67.78;99722.69;7349968;19;20683;-64
2022/04/12 02:54:31;;;;;;;0.00;0.00;;;;;;;10.87;67.83;99722.78;7345145;19;20010;-63
2022/04/12 02:56:57;;;;;;;0.00;0.00;;;;;;;10.91;68.23;99728.72;7352567;19;20093;-63
2022/04/12 02:59:23;;;;;;;0.00;0.00;;;;;;;10.87;68.10;99711.47;7327044;19;20021;-64
2022/04/12 03:01:49;;;;;;;0.00;0.00;;;;;;;10.86;68.29;99704.56;7353462;19;20023;-65
2022/04/12 03:04:14;;;;;;;0.00;0.00;;;;;;;10.96;68.60;99726.78;7347966;19;20010;-63
2022/04/12 03:06:40;;;;;;;0.00;0.00;;;;;;;10.99;69.05;99729.25;7342064;19;20003;-64
2022/04/12 03:09:05;;;;;;;0.00;0.00;;;;;;;10.95;68.59;99727.72;7354532;19;20011;-63
2022/04/12 03:11:31;;;;;;;0.00;0.00;;;;;;;10.99;68.89;99723.19;7350254;19;20049;-64
2022/04/12 03:13:56;;;;;;;0.08;0.08;;;;;;;10.91;69.06;99710.44;7355075;19;20010;-64
2022/04/12 03:16:21;;;;;;;0.00;0.00;;;;;;;10.86;68.95;99696.72;7352813;19;20073;-62
2022/04/12 03:18:47;;;;;;;0.00;0.00;;;;;;;10.94;68.93;99712.06;7356488;19;20014;-64
2022/04/12 03:21:12;;;;;;;0.00;0.00;;;;;;;10.81;69.21;99696.06;7357680;19;20012;-63
2022/04/12 03:23:38;;;;;;;0.00;0.00;;;;;;;10.91;68.47;99713.91;7354800;19;20033;-64
2022/04/12 03:26:03;;;;;;;0.00;0.00;;;;;;;10.91;68.71;99720.91;7357797;19;20137;-64
2022/04/12 03:28:29;;;;;;;0.00;0.00;;;;;;;10.79;68.91;99706.53;7356316;19;20343;-63
2022/04/12 03:30:55;;;;;;;0.00;0.00;;;;;;;10.86;69.12;99713.25;7358664;19;20090;-64
2022/04/12 03:33:20;;;;;;;0.00;0.00;;;;;;;10.84;69.30;99714.19;7364214;19;20007;-64
2022/04/12 03:35:45;;;;;;;0.00;0.00;;;;;;;10.76;68.93;99703.22;7359950;19;20014;-63
2022/04/12 03:38:13;;;;;;;0.03;0.03;;;;;;;10.79;69.22;99716.13;7361579;19;20017;-64
2022/04/12 03:40:38;;;;;;;0.00;0.00;;;;;;;10.76;69.06;99711.91;7361445;19;20026;-64
2022/04/12 03:43:04;;;;;;;0.00;0.00;;;;;;;10.74;68.82;99712.84;7364282;19;20081;-64
2022/04/12 03:45:31;;;;;;;0.00;0.00;;;;;;;10.71;69.23;99710.38;7357303;19;20018;-63
2022/04/12 03:47:57;;;;;;;0.00;0.00;;;;;;;10.67;68.58;99709.66;7362153;19;20106;-64
2022/04/12 03:50:24;;;;;;;0.00;0.00;;;;;;;10.59;68.81;99707.34;7361921;19;20011;-64
2022/04/12 03:52:50;;;;;;;0.00;0.00;;;;;;;10.17;69.02;99641.09;7352700;19;20015;-63
2022/04/12 03:55:30;;;;;;;0.10;0.10;;;;;;;10.55;69.22;99708.38;7363350;19;20697;-63
2022/04/12 03:57:56;;;;;;;0.00;0.00;;;;;;;10.50;68.95;99705.09;7353446;19;20133;-64
2022/04/12 04:00:21;;;;;;;0.10;0.10;;;;;;;10.47;68.65;99693.91;7361698;19;20028;-64
2022/04/12 04:02:47;;;;;;;0.00;0.00;;;;;;;10.43;68.36;99698.38;7361910;19;20006;-64
2022/04/12 04:05:12;;;;;;;0.00;0.00;;;;;;;10.04;68.15;99649.38;7355737;19;20403;-65
2022/04/12 04:07:38;;;;;;;0.00;0.00;;;;;;;10.34;67.93;99709.16;7362464;19;20039;-64
2022/04/12 04:10:04;;;;;;;0.00;0.00;;;;;;;10.31;67.75;99719.72;7364458;19;20132;-63
2022/04/12 04:12:30;;;;;;;0.00;0.00;;;;;;;10.26;68.42;99711.22;7354586;19;20030;-65
2022/04/12 04:14:55;;;;;;;0.00;0.00;;;;;;;10.23;68.28;99713.91;7355803;19;20010;-64
2022/04/12 04:17:21;;;;;;;0.00;0.00;;;;;;;10.18;68.34;99702.78;7363718;19;20078;-64
2022/04/12 04:19:47;;;;;;;0.00;0.00;;;;;;;10.14;68.76;99702.91;7348480;19;20860;-64
2022/04/12 04:22:12;;;;;;;0.00;0.00;;;;;;;10.11;68.30;99713.44;7361834;19;20013;-63
2022/04/12 04:24:37;;;;;;;0.00;0.00;;;;;;;10.07;67.62;99717.06;7354471;19;20014;-63
2022/04/12 04:27:05;;;;;;;0.00;0.00;;;;;;;10.04;67.71;99717.22;7358716;19;20844;-65
2022/04/12 04:29:33;;;;;;;0.00;0.00;;;;;;;9.98;67.75;99727.84;7359605;19;20892;-63
2022/04/12 04:31:59;;;;;;;0.10;0.10;;;;;;;9.98;67.98;99725.22;7360757;19;20029;-64
2022/04/12 04:34:24;;;;;;;0.00;0.00;;;;;;;9.84;67.95;99709.25;7363538;19;20014;-64
2022/04/12 04:36:50;;;;;;;0.00;0.00;;;;;;;9.92;67.68;99728.06;7341804;19;20108;-65
2022/04/12 04:39:15;;;;;;;0.10;0.10;;;;;;;9.83;67.55;99704.91;7363222;19;20044;-65
2022/04/12 04:41:41;;;;;;;0.00;0.00;;;;;;;9.88;67.79;99713.41;7359580;19;20486;-64
2022/04/12 04:44:07;;;;;;;0.00;0.00;;;;;;;9.83;67.68;99707.53;7361260;19;20049;-63
2022/04/12 04:46:33;;;;;;;0.00;0.00;;;;;;;9.80;67.85;99705.03;7363293;19;20429;-65
2022/04/12 04:48:58;;;;;;;0.00;0.00;;;;;;;9.78;67.59;99709.44;7362699;19;20010;-64
2022/04/12 04:51:24;;;;;;;0.00;0.00;;;;;;;9.78;67.03;99719.88;7358551;19;20002;-63
2022/04/12 04:53:57;;;;;;;0.05;0.05;;;;;;;9.75;66.61;99720.84;7359465;19;20017;-63
2022/04/12 04:56:23;;;;;;;0.00;0.00;;;;;;;9.73;66.66;99716.56;7352582;19;20018;-64
2022/04/12 04:58:48;;;;;;;0.00;0.00;;;;;;;9.71;67.01;99715.78;7362393;19;20040;-63
2022/04/12 05:01:13;;;;;;;0.03;0.03;;;;;;;9.68;67.34;99716.75;7356199;19;20110;-63
2022/04/12 05:03:39;;;;;;;0.00;0.00;;;;;;;9.57;67.40;99714.50;7353797;19;20022;-64
2022/04/12 05:06:04;;;;;;;0.00;0.00;;;;;;;9.67;67.79;99738.50;7357569;19;20033;-63
2022/04/12 05:08:30;;;;;;;0.10;0.10;;;;;;;9.66;67.83;99736.78;7362242;19;20021;-64
2022/04/12 05:10:55;;;;;;;0.00;0.00;;;;;;;9.66;67.96;99731.59;7357645;19;20031;-64
2022/04/12 05:13:21;;;;;;;0.10;0.10;;;;;;;9.66;67.71;99730.72;7354514;19;20003;-64
2022/04/12 05:15:46;;;;;;;0.00;0.00;;;;;;;9.62;68.21;99723.00;7357588;19;20044;-63
2022/04/12 05:18:12;;;;;;;0.00;0.00;;;;;;;9.65;68.26;99721.22;7349663;19;20015;-63
2022/04/12 05:20:38;;;;;;;0.00;0.00;;;;;;;9.65;67.92;99713.41;7354216;19;20042;-63
2022/04/12 05:23:03;;;;;;;0.10;0.10;;;;;;;9.66;68.09;99720.31;7358668;19;20610;-64
2022/04/12 05:25:29;;;;;;;0.00;0.00;;;;;;;9.69;68.28;99715.00;7345611;19;20006;-64
2022/04/12 05:27:55;;;;;;;0.00;0.00;;;;;;;9.70;68.23;99721.91;7359698;19;20011;-64
2022/04/12 05:30:21;;;;;;;0.08;0.08;;;;;;;9.69;68.12;99728.88;7345733;19;20111;-65
2022/04/12 05:32:47;;;;;;;0.00;0.00;;;;;;;9.74;68.54;99733.94;7342266;19;20010;-63
2022/04/12 05:35:13;;;;;;;0.00;0.00;;;;;;;9.75;68.72;99730.41;7350021;19;20480;-63
2022/04/12 05:37:46;;;;;;;0.03;0.03;;;;;;;9.79;68.19;99721.59;7358936;19;20042;-63
2022/04/12 05:40:13;;;;;;;0.10;0.10;;;;;;;9.77;68.45;99719.03;7360481;19;20017;-64
2022/04/12 05:42:39;;;;;;;0.10;0.10;;;;;;;9.83;68.41;99730.97;7351119;19;20030;-65
2022/04/12 05:45:09;;;;;;;0.00;0.00;;;;;;;9.87;68.15;99724.75;7358802;19;20006;-65
2022/04/12 05:47:45;;;;;;;0.10;0.10;;;;;;;9.91;68.01;99721.16;7346651;19;20011;-64
2022/04/12 05:50:13;;;;;;;0.00;0.00;;;;;;;9.91;68.60;99721.16;7348516;19;20022;-65
2022/04/12 05:52:39;;;;;;;;;;;;;;;9.94;66.83;99728.88;7353160;19;20014;-64
2022/04/12 05:55:06;;;;;;;0.00;0.00;;;;;;;9.93;68.46;99729.75;7360667;19;19922;-63
2022/04/12 05:57:34;;;;;;;0.00;0.00;;;;;;;9.93;68.60;99734.97;7332334;19;20063;-64
2022/04/12 06:00:00;;;;;;;0.00;0.00;;;;;;;9.90;68.94;99719.44;7356875;19;20029;-64
2022/04/12 06:02:25;;;;;;;0.00;0.00;;;;;;;9.94;68.52;99731.47;7351799;19;20014;-65
2022/04/12 06:04:50;;;;;;;0.05;0.05;;;;;;;9.90;68.60;99729.88;7358611;19;20030;-64
2022/04/12 06:07:16;;;;;;;0.00;0.00;;;;;;;9.97;68.75;99744.41;7348526;19;20014;-62
2022/04/12 06:09:41;;;;;;;0.00;0.00;;;;;;;9.99;68.85;99737.38;7348726;19;20015;-64
2022/04/12 06:12:07;;;;;;;0.00;0.00;;;;;;;10.03;68.83;99732.88;7355583;19;20017;-63
2022/04/12 06:14:32;;;;;;;0.00;0.00;;;;;;;9.87;68.85;99712.56;7357581;19;20824;-63
2022/04/12 06:16:58;;;;;;;0.00;0.00;;;;;;;9.99;68.60;99726.94;7354599;19;20499;-65
2022/04/12 06:19:23;;;;;;;0.00;0.00;;;;;;;10.05;68.38;99734.56;7354234;19;20046;-64
2022/04/12 06:21:48;;;;;;;0.00;0.00;;;;;;;10.15;68.44;99755.94;7353624;19;20606;-64
2022/04/12 06:24:14;;;;;;;0.10;0.10;;;;;;;10.19;68.37;99764.50;7355245;19;20022;-65
2022/04/12 06:26:39;;;;;;;0.00;0.00;;;;;;;10.22;68.57;99762.63;7346816;19;20015;-64
2022/04/12 06:29:05;;;;;;;0.00;0.00;;;;;;;10.26;68.61;99766.88;7345415;19;20025;-63
2022/04/12 06:31:30;;;;;;;0.00;0.00;;;;;;;10.28;68.29;99761.59;7355918;19;20022;-64
2022/04/12 06:33:56;;;;;;;0.10;0.10;;;;;;;10.24;68.23;99746.94;7354914;19;20042;-64
2022/04/12 06:36:21;;;;;;;0.00;0.00;;;;;;;10.36;68.30;99751.72;7352532;19;20015;-64
2022/04/12 06:38:46;;;;;;;0.00;0.00;;;;;;;10.40;68.05;99761.16;7352946;19;20006;-63
2022/04/12 06:41:12;;;;;;;0.00;0.00;;;;;;;10.42;68.43;99767.16;7352183;19;20807;-64
2022/04/12 06:43:37;;;;;;;0.00;0.00;;;;;;;10.45;68.23;99768.81;7349860;19;20026;-63
2022/04/12 06:46:02;;;;;;;0.10;0.10;;;;;;;10.45;68.40;99766.22;7346986;19;20027;-65
2022/04/12 06:48:29;;;;;;;0.10;0.10;;;;;;;10.44;68.20;99762.75;7354858;19;20025;-64
2022/04/12 06:50:54;;;;;;;0.00;0.00;;;;;;;10.50;68.46;99772.94;7359261;19;20062;-65
2022/04/12 06:53:21;;;;;;;0.00;0.00;;;;;;;10.55;68.54;99770.16;7363025;19;20507;-64
2022/04/12 06:55:47;;;;;;;0.00;0.00;;;;;;;10.56;68.53;99770.09;7357984;19;20098;-63
2022/04/12 06:58:13;;;;;;;0.00;0.00;;;;;;;10.59;68.33;99774.34;7358136;19;20078;-64
2022/04/12 07:00:40;;;;;;;0.03;0.03;;;;;;;10.61;68.37;99781.22;7359648;19;20022;-63
2022/04/12 07:03:06;;;;;;;0.05;0.05;;;;;;;10.54;68.26;99758.00;7353121;19;20772;-64
2022/04/12 07:05:31;;;;;;;0.00;0.00;;;;;;;10.69;68.42;99777.47;7361612;19;20014;-63
2022/04/12 07:07:57;;;;;;;0.00;0.00;;;;;;;10.72;68.34;99775.59;7356686;19;20643;-64
2022/04/12 07:10:22;;;;;;;0.10;0.10;;;;;;;10.64;68.09;99755.03;7357848;19;20007;-64
2022/04/12 07:12:53;;;;;;;0.00;0.00;;;;;;;10.80;68.25;99777.94;7354511;19;20022;-64
2022/04/12 07:15:19;;;;;;;0.05;0.05;;;;;;;10.82;67.91;99763.03;7355885;19;20025;-64
2022/04/12 07:17:44;;;;;;;0.08;0.08;;;;;;;10.87;68.11;99767.16;7357155;19;20010;-64
2022/04/12 07:20:10;;;;;;;0.05;0.05;;;;;;;10.92;67.62;99764.38;7358169;19;20006;-64
2022/04/12 07:22:35;;;;;;;0.10;0.10;;;;;;;10.86;67.98;99743.75;7355845;19;20027;-65
2022/04/12 07:25:01;;;;;;;0.00;0.00;;;;;;;10.87;67.74;99742.81;7356625;19;20121;-64
2022/04/12 07:27:26;;;;;;;0.03;0.03;;;;;;;11.03;67.69;99772.66;7350148;19;20022;-64
2022/04/12 07:29:51;;;;;;;0.08;0.08;;;;;;;11.08;67.87;99770.69;7344182;19;20462;-64
2022/04/12 07:32:17;;;;;;;0.10;0.10;;;;;;;11.13;67.95;99778.34;7362560;19;20034;-63
2022/04/12 07:34:42;;;;;;;0.00;0.00;;;;;;;11.17;68.07;99780.78;7346501;19;20043;-65
2022/04/12 07:37:08;;;;;;;0.00;0.00;;;;;;;11.22;67.63;99782.38;7360185;19;20081;-65
2022/04/12 07:39:34;;;;;;;0.00;0.00;;;;;;;11.24;67.82;99781.38;7358118;19;20014;-64
2022/04/12 07:41:59;;;;;;;0.10;0.10;;;;;;;11.29;67.63;99773.38;7349747;19;20014;-65
2022/04/12 07:44:24;;;;;;;0.10;0.10;;;;;;;11.33;67.88;99774.94;7359558;19;20018;-64
2022/04/12 07:46:50;;;;;;;0.00;0.00;;;;;;;11.12;67.42;99735.72;7350973;19;20010;-65
2022/04/12 07:49:16;;;;;;;0.03;0.03;;;;;;;11.37;67.64;99763.47;7358103;19;20117;-63
2022/04/12 07:51:41;;;;;;;0.10;0.10;;;;;;;11.39;67.75;99765.09;7350481;19;20021;-65
2022/04/12 07:54:07;;;;;;;0.10;0.10;;;;;;;11.47;67.56;99767.41;7359268;19;20010;-65
2022/04/12 07:56:33;;;;;;;0.00;0.00;;;;;;;11.49;67.67;99773.41;7352495;19;20018;-64
2022/04/12 07:59:00;;;;;;;0.00;0.00;;;;;;;11.52;67.16;99764.59;7357791;19;20007;-65
2022/04/12 08:01:25;;;;;;;0.00;0.00;;;;;;;11.55;67.50;99770.53;7357457;19;20134;-63
2022/04/12 08:03:51;;;;;;;0.08;0.08;;;;;;;11.57;67.00;99773.94;7354145;19;20451;-63
2022/04/12 08:06:16;;;;;;;0.00;0.00;;;;;;;11.60;67.06;99768.56;7359171;19;20826;-65
2022/04/12 08:08:41;;;;;;;0.00;0.00;;;;;;;11.47;67.40;99741.25;7357384;19;20011;-65
2022/04/12 08:11:07;;;;;;;0.00;0.00;;;;;;;11.64;67.18;99770.16;7363278;19;20594;-63
2022/04/12 08:13:33;;;;;;;0.10;0.10;;;;;;;11.66;67.49;99765.72;7359236;19;20007;-63
2022/04/12 08:15:59;;;;;;;0.00;0.00;;;;;;;11.67;67.48;99770.03;7352307;19;20031;-64
2022/04/12 08:18:24;;;;;;;0.00;0.00;;;;;;;11.70;67.63;99764.66;7354926;19;20006;-65
2022/04/12 08:20:50;;;;;;;0.00;0.00;;;;;;;11.72;67.62;99772.47;7358241;19;20801;-65
2022/04/12 08:23:16;;;;;;;0.00;0.00;;;;;;;11.75;67.96;99771.47;7355631;19;20042;-64
2022/04/12 08:25:42;;;;;;;0.00;0.00;;;;;;;11.77;68.41;99780.97;7355162;19;20002;-64
2022/04/12 08:28:08;;;;;;;0.00;0.00;;;;;;;11.80;67.78;99777.34;7357920;19;20090;-63
2022/04/12 08:30:34;;;;;;;0.00;0.00;;;;;;;11.81;67.72;99766.84;7354361;19;20725;-64
2022/04/12 08:33:01;;;;;;;0.00;0.00;;;;;;;11.85;68.01;99767.56;7351937;19;20014;-64
2022/04/12 08:35:27;;;;;;;0.00;0.00;;;;;;;11.87;68.19;99755.28;7347748;19;20014;-65
2022/04/12 08:37:53;;;;;;;0.00;0.00;;;;;;;11.89;68.04;99756.06;7353702;19;20018;-65
2022/04/12 08:40:18;;;;;;;0.00;0.00;;;;;;;11.92;67.92;99766.41;7360616;19;20511;-65
2022/04/12 08:42:45;;;;;;;0.00;0.00;;;;;;;11.95;68.05;99761.03;7361170;19;20019;-63
2022/04/12 08:45:11;;;;;;;0.00;0.00;;;;;;;11.97;68.09;99761.84;7355812;19;20034;-64
2022/04/12 08:47:36;;;;;;;0.00;0.00;;;;;;;11.99;68.27;99762.59;7360362;19;20011;-64
2022/04/12 08:50:05;;;;;;;0.00;0.00;;;;;;;12.04;68.61;99768.47;7362500;19;20062;-65
2022/04/12 08:52:31;;;;;;;0.00;0.00;;;;;;;12.04;68.79;99767.63;7357143;19;20089;-65
2022/04/12 08:54:56;;;;;;;0.10;0.10;;;;;;;12.07;68.53;99764.91;7364092;19;20022;-65
2022/04/12 08:57:21;;;;;;;0.00;0.00;;;;;;;11.98;68.68;99750.44;7347930;19;20475;-64
2022/04/12 08:59:48;;;;;;;0.00;0.00;;;;;;;12.10;68.75;99773.44;7362353;19;20019;-64
2022/04/12 09:02:13;;;;;;;0.00;0.00;;;;;;;12.10;68.59;99768.22;7353353;19;20010;-64
2022/04/12 09:04:39;;;;;;;0.00;0.00;;;;;;;12.13;68.60;99780.31;7361053;19;20014;-63
2022/04/12 09:07:11;;;;;;;0.10;0.10;;;;;;;12.06;68.21;99758.78;7361321;19;20007;-65
2022/04/12 09:09:39;;;;;;;0.08;0.08;;;;;;;12.18;68.74;99780.97;7357314;19;20034;-66
2022/04/12 09:12:13;;;;;;;0.00;0.00;;;;;;;12.19;68.60;99783.50;7364920;19;20021;-64
2022/04/12 09:14:53;;;;;;;0.00;0.00;;;;;;;12.22;67.85;99787.78;7353476;19;20014;-64
2022/04/12 09:17:27;;;;;;;0.08;0.08;;;;;;;12.23;68.32;99784.25;7359774;19;20014;-64
2022/04/12 09:19:52;;;;;;;0.00;0.00;;;;;;;12.13;68.35;99773.31;7361226;19;20534;-66
2022/04/12 09:22:21;;;;;;;0.10;0.10;;;;;;;12.23;68.55;99783.38;7364726;19;20020;-66
2022/04/12 09:24:51;;;;;;;0.00;0.00;;;;;;;12.23;68.30;99783.38;7359377;19;20014;-65
2022/04/12 09:27:19;;;;;;;0.10;0.10;;;;;;;12.22;68.61;99781.69;7362604;19;20579;-65
2022/04/12 09:30:02;;;;;;;0.00;0.00;;;;;;;12.27;68.08;99780.56;7351171;19;20022;-64
2022/04/12 09:32:36;;;;;;;0.10;0.10;;;;;;;12.25;68.19;99779.78;7360306;19;20007;-64
2022/04/12 09:35:02;;;;;;;0.00;0.00;;;;;;;12.23;68.68;99772.91;7359165;19;20010;-65
2022/04/12 09:37:30;;;;;;;0.00;0.00;;;;;;;12.09;68.37;99758.66;7354868;19;21212;-64
2022/04/12 09:39:55;;;;;;;0.00;0.00;;;;;;;12.24;68.71;99772.00;7354392;19;20338;-65
2022/04/12 09:42:35;;;;;;;0.00;0.00;;;;;;;12.27;68.08;99780.56;7358595;19;20073;-65
2022/04/12 09:45:04;;;;;;;0.00;0.00;;;;;;;12.24;68.48;99774.63;7353042;19;20037;-65
2022/04/12 09:47:33;;;;;;;0.00;0.00;;;;;;;12.25;68.29;99776.31;7353519;19;20017;-65
2022/04/12 09:50:00;;;;;;;0.00;0.00;;;;;;;12.23;68.39;99780.78;7357816;19;20018;-65
2022/04/12 09:52:25;;;;;;;0.00;0.00;;;;;;;12.20;68.49;99777.34;7353575;19;20018;-63
2022/04/12 09:54:51;;;;;;;0.00;0.00;;;;;;;12.18;68.81;99776.59;7342742;19;20753;-63
2022/04/12 09:57:17;;;;;;;0.08;0.08;;;;;;;12.16;68.42;99775.78;7360520;19;20006;-64
2022/04/12 09:59:44;;;;;;;0.00;0.00;;;;;;;12.15;68.73;99776.72;7362545;19;20343;-63
2022/04/12 10:02:11;;;;;;;0.00;0.00;;;;;;;12.10;68.89;99765.59;7355727;19;20014;-63
2022/04/12 10:04:38;;;;;;;0.00;0.00;;;;;;;12.09;68.80;99766.50;7358140;19;20515;-63
2022/04/12 10:07:05;;;;;;;0.00;0.00;;;;;;;12.04;69.00;99767.63;7359453;19;20034;-60
2022/04/12 10:09:36;;;;;;;0.00;0.00;;;;;;;12.07;69.03;99763.13;7359584;19;20015;-66
2022/04/12 10:12:02;;;;;;;0.00;0.00;;;;;;;12.04;68.84;99755.41;7346536;19;20021;-66
2022/04/12 10:14:29;;;;;;;0.03;0.03;;;;;;;12.03;69.15;99758.94;7356567;19;20010;-65
2022/04/12 10:16:57;;;;;;;0.00;0.00;;;;;;;12.02;69.34;99749.41;7353910;19;20025;-65
2022/04/12 10:19:23;;;;;;;0.00;0.00;;;;;;;12.01;69.20;99752.91;7355513;19;20518;-64
2022/04/12 10:21:48;;;;;;;0.00;0.00;;;;;;;11.98;69.11;99753.06;7358160;19;20006;-64
2022/04/12 10:24:15;;;;;;;0.00;0.00;;;;;;;12.00;69.37;99756.44;7351901;19;20007;-62
2022/04/12 10:26:43;;;;;;;0.00;0.00;;;;;;;11.99;69.45;99754.75;7357502;19;21166;-65
2022/04/12 10:29:09;;;;;;;0.00;0.00;;;;;;;11.98;69.19;99758.28;7359382;19;20727;-65
2022/04/12 10:31:34;;;;;;;0.00;0.00;;;;;;;11.99;68.97;99762.59;7352908;19;20018;-63
2022/04/12 10:34:09;;;;;;;0.00;0.00;;;;;;;12.01;69.09;99758.13;7357680;19;20016;-64
2022/04/12 10:37:02;;;;;;;0.00;0.00;;;;;;;12.03;68.59;99761.56;7357480;19;20136;-64
2022/04/12 10:39:48;;;;;;;0.00;0.00;;;;;;;12.04;68.21;99758.00;7252340;19;2004356;-64
2022/04/12 10:42:24;;;;;;;0.00;0.00;;;;;;;12.04;68.54;99751.94;7353396;19;20424;-64
2022/04/12 10:44:57;;;;;;;0.00;0.00;;;;;;;12.03;68.95;99753.72;7352097;19;20047;-64
2022/04/12 10:47:30;;;;;;;0.00;0.00;;;;;;;12.03;68.74;99751.09;7354233;19;20770;-65
2022/04/12 10:49:59;;;;;;;0.00;0.00;;;;;;;12.00;69.05;99739.91;7361247;19;20040;-65
2022/04/12 10:52:42;;;;;;;0.03;0.03;;;;;;;12.04;68.61;99746.69;7353199;19;20010;-64
2022/04/12 10:55:11;;;;;;;0.00;0.00;;;;;;;12.02;69.40;99744.16;7361456;19;20014;-63
2022/04/12 10:57:36;;;;;;;0.00;0.00;;;;;;;12.01;69.33;99742.44;7356434;19;20013;-63
2022/04/12 11:00:15;;;;;;;0.05;0.05;;;;;;;12.03;68.63;99735.38;7361967;19;20011;-63
2022/04/12 11:02:51;;;;;;;0.00;0.00;;;;;;;12.04;69.42;99744.09;7353993;19;20017;-65
2022/04/12 11:05:44;;;;;;;0.00;0.00;;;;;;;12.08;68.62;99743.88;7355811;19;20014;-62
2022/04/12 11:08:15;;;;;;;0.10;0.10;;;;;;;12.09;69.09;99742.97;7255920;19;2004819;-63
2022/04/12 11:11:03;;;;;;;0.00;0.00;;;;;;;12.05;69.16;99737.94;7360815;19;20761;-62
2022/04/12 11:13:31;;;;;;;0.00;0.00;;;;;;;12.10;69.43;99744.66;7350109;19;20014;-63
2022/04/12 11:15:59;;;;;;;0.00;0.00;;;;;;;12.15;69.32;99750.53;7359543;19;20015;-65
2022/04/12 11:18:47;;;;;;;0.00;0.00;;;;;;;12.09;68.65;99724.66;7348373;19;20020;-64
2022/04/12 11:21:13;;;;;;;0.00;0.00;;;;;;;12.20;69.54;99753.81;7258020;19;2004468;-65
2022/04/12 11:23:51;;;;;;;0.00;0.00;;;;;;;12.28;68.75;99750.84;7346571;19;20395;-64
2022/04/12 11:26:38;;;;;;;0.00;0.00;;;;;;;12.25;68.59;99739.66;7361992;19;20634;-65
2022/04/12 11:29:08;;;;;;;0.00;0.00;;;;;;;12.40;69.31;99749.44;7356270;19;20466;-66
2022/04/12 11:31:36;;;;;;;0.10;0.10;;;;;;;12.46;69.27;99754.41;7355023;19;20018;-65
2022/04/12 11:34:02;;;;;;;0.10;0.10;;;;;;;12.51;68.98;99752.41;7348919;19;20098;-62
2022/04/12 11:36:28;;;;;;;0.00;0.00;;;;;;;12.48;68.92;99731.63;7360910;19;20010;-63